createdAt,value
2019-03-29T00:01:29.506Z,102278.97
2019-03-29T00:04:00.846Z,102280.65
2019-03-29T00:06:31.729Z,102284.97
2019-03-29T00:09:02.383Z,102288.61
2019-03-29T00:11:33.239Z,102291.50
2019-03-29T00:14:03.869Z,102294.81
2019-03-29T00:16:38.406Z,102289.47
2019-03-29T00:19:09.181Z,102283.19
2019-03-29T00:21:39.914Z,102284.39
2019-03-29T00:24:10.583Z,102279.66
2019-03-29T00:26:41.336Z,102282.15
2019-03-29T00:29:11.972Z,102276.61
2019-03-29T00:31:42.743Z,102272.41
2019-03-29T00:34:13.394Z,102272.58
2019-03-29T00:36:44.254Z,102278.11
2019-03-29T00:39:15.253Z,102275.10
2019-03-29T00:41:46.064Z,102268.80
2019-03-29T00:44:17.008Z,102270.47
2019-03-29T00:46:47.897Z,102266.91
2019-03-29T00:49:18.533Z,102265.91
2019-03-29T00:51:49.283Z,102266.34
2019-03-29T00:54:20.141Z,102270.30
2019-03-29T00:56:50.895Z,102262.59
2019-03-29T00:59:21.427Z,102263.41
2019-03-29T01:01:53.407Z,102263.84
2019-03-29T01:04:24.286Z,102255.45
2019-03-29T01:06:55.036Z,102257.06
2019-03-29T01:09:25.788Z,102258.84
2019-03-29T01:11:56.645Z,102260.59
2019-03-29T01:14:27.502Z,102263.69
2019-03-29T01:16:58.254Z,102265.23
2019-03-29T01:19:29.188Z,102259.33
2019-03-29T01:22:00.564Z,102257.05
2019-03-29T01:24:31.434Z,102256.45
2019-03-29T01:27:02.291Z,102262.36
2019-03-29T01:29:33.046Z,102263.03
2019-03-29T01:32:03.801Z,102254.34
2019-03-29T01:34:34.551Z,102258.81
2019-03-29T01:37:05.309Z,102260.91
2019-03-29T01:39:36.059Z,102253.10
2019-03-29T01:42:07.124Z,102249.81
2019-03-29T01:44:37.467Z,102247.85
2019-03-29T01:47:08.203Z,102247.22
2019-03-29T01:49:38.975Z,102259.77
2019-03-29T01:52:09.607Z,102251.48
2019-03-29T01:54:40.362Z,102251.30
2019-03-29T01:57:11.237Z,102252.87
2019-03-29T01:59:42.321Z,102246.71
2019-03-29T02:02:14.772Z,102241.27
2019-03-29T02:04:45.542Z,102236.03
2019-03-29T02:07:16.193Z,102235.82
2019-03-29T02:09:46.927Z,102228.82
2019-03-29T02:12:17.905Z,102230.77
2019-03-29T02:14:48.657Z,102231.84
2019-03-29T02:17:19.312Z,102228.20
2019-03-29T02:19:50.169Z,102226.98
2019-03-29T02:22:20.904Z,102220.27
2019-03-29T02:24:51.557Z,102218.59
2019-03-29T02:27:22.267Z,102221.58
2019-03-29T02:29:53.182Z,102224.67
2019-03-29T02:32:25.098Z,102221.01
2019-03-29T02:34:56.019Z,102215.31
2019-03-29T02:37:26.664Z,102217.09
2019-03-29T02:39:57.409Z,102217.63
2019-03-29T02:42:28.270Z,102212.54
2019-03-29T02:44:59.036Z,102209.00
2019-03-29T02:47:29.687Z,102213.02
2019-03-29T02:50:00.539Z,102213.16
2019-03-29T02:52:31.409Z,102210.08
2019-03-29T02:55:02.033Z,102210.00
2019-03-29T02:57:32.906Z,102210.39
2019-03-29T03:00:04.993Z,102209.61
2019-03-29T03:02:36.562Z,102208.11
2019-03-29T03:05:08.349Z,102208.48
2019-03-29T03:07:38.890Z,102210.03
2019-03-29T03:10:10.061Z,102202.98
2019-03-29T03:12:40.509Z,102209.92
2019-03-29T03:15:11.028Z,102202.08
2019-03-29T03:17:41.904Z,102213.88
2019-03-29T03:20:15.909Z,102214.59
2019-03-29T03:22:46.376Z,102212.47
2019-03-29T03:25:17.027Z,102211.16
2019-03-29T03:27:47.784Z,102213.23
2019-03-29T03:30:18.638Z,102222.59
2019-03-29T03:32:49.404Z,102215.28
2019-03-29T03:35:19.941Z,102214.23
2019-03-29T03:37:50.798Z,102214.53
2019-03-29T03:40:21.558Z,102218.28
2019-03-29T03:42:52.287Z,102221.39
2019-03-29T03:45:22.958Z,102221.30
2019-03-29T03:47:53.794Z,102228.63
2019-03-29T03:50:40.552Z,102225.62
2019-03-29T03:53:11.092Z,102225.81
2019-03-29T03:55:42.174Z,102223.91
2019-03-29T03:58:12.943Z,102224.27
2019-03-29T04:00:55.233Z,102223.95
2019-03-29T04:03:27.090Z,102220.34
2019-03-29T04:05:57.507Z,102224.84
2019-03-29T04:08:28.169Z,102229.55
2019-03-29T04:10:59.027Z,102224.45
2019-03-29T04:13:38.970Z,102220.06
2019-03-29T04:16:09.739Z,102217.98
2019-03-29T04:18:40.394Z,102211.24
2019-03-29T04:21:11.130Z,102213.22
2019-03-29T04:23:41.901Z,102204.85
2019-03-29T04:26:12.651Z,102207.80
2019-03-29T04:28:43.303Z,102211.69
2019-03-29T04:31:14.257Z,102212.44
2019-03-29T04:33:45.101Z,102213.16
2019-03-29T04:36:15.766Z,102215.47
2019-03-29T04:38:46.522Z,102213.47
2019-03-29T04:41:17.265Z,102208.09
2019-03-29T04:43:48.031Z,102205.04
2019-03-29T04:46:18.683Z,102205.47
2019-03-29T04:48:49.547Z,102207.15
2019-03-29T04:51:20.290Z,102199.13
2019-03-29T04:53:51.042Z,102205.19
2019-03-29T04:56:21.696Z,102194.34
2019-03-29T04:58:52.551Z,102193.13
2019-03-29T05:01:23.306Z,102191.27
2019-03-29T05:03:55.070Z,102186.64
2019-03-29T05:06:25.716Z,102183.48
2019-03-29T05:08:55.795Z,102183.67
2019-03-29T05:11:26.319Z,102183.60
2019-03-29T05:13:56.973Z,102186.46
2019-03-29T05:16:27.829Z,102180.67
2019-03-29T05:18:58.685Z,102189.08
2019-03-29T05:21:29.442Z,102188.08
2019-03-29T05:24:00.075Z,102192.11
2019-03-29T05:26:30.946Z,102193.21
2019-03-29T05:29:01.702Z,102189.64
2019-03-29T05:31:32.452Z,102185.38
2019-03-29T05:34:03.312Z,102184.71
2019-03-29T05:36:34.165Z,102184.91
2019-03-29T05:39:05.964Z,102183.81
2019-03-29T05:41:36.391Z,102181.45
2019-03-29T05:44:07.023Z,102185.72
2019-03-29T05:46:36.998Z,102181.66
2019-03-29T05:49:07.528Z,102184.11
2019-03-29T05:51:38.279Z,102184.00
2019-03-29T05:54:09.135Z,102183.32
2019-03-29T05:56:39.996Z,102182.21
2019-03-29T05:59:10.747Z,102184.31
2019-03-29T06:01:41.284Z,102186.21
2019-03-29T06:04:11.930Z,102191.42
2019-03-29T06:06:42.802Z,102198.73
2019-03-29T06:09:13.558Z,102188.27
2019-03-29T06:11:44.206Z,102195.59
2019-03-29T06:14:15.063Z,102199.34
2019-03-29T06:16:45.818Z,102196.97
2019-03-29T06:19:16.570Z,102194.72
2019-03-29T06:21:47.223Z,102205.76
2019-03-29T06:24:17.958Z,102203.06
2019-03-29T06:26:48.753Z,102192.65
2019-03-29T06:29:19.466Z,102190.68
2019-03-29T06:31:49.648Z,102205.24
2019-03-29T06:34:20.070Z,102206.98
2019-03-29T06:36:50.184Z,102200.41
2019-03-29T06:39:21.392Z,102198.52
2019-03-29T06:41:52.321Z,102204.05
2019-03-29T06:44:23.085Z,102200.94
2019-03-29T06:46:53.739Z,102192.20
2019-03-29T06:49:24.595Z,102201.59
2019-03-29T06:51:55.349Z,102202.45
2019-03-29T06:54:26.117Z,102193.15
2019-03-29T06:56:56.843Z,102205.03
2019-03-29T06:59:27.710Z,102207.23
2019-03-29T07:01:58.347Z,102203.70
2019-03-29T07:04:29.934Z,102201.16
2019-03-29T07:07:00.573Z,102198.29
2019-03-29T07:09:30.648Z,102197.09
2019-03-29T07:12:01.159Z,102196.07
2019-03-29T07:14:31.808Z,102193.84
2019-03-29T07:17:01.679Z,102194.25
2019-03-29T07:19:32.207Z,102192.63
2019-03-29T07:22:03.270Z,102189.23
2019-03-29T07:24:34.125Z,102191.59
2019-03-29T07:27:04.880Z,102187.01
2019-03-29T07:29:35.529Z,102182.69
2019-03-29T07:32:06.387Z,102171.31
2019-03-29T07:34:37.243Z,102177.16
2019-03-29T07:37:07.999Z,102178.47
2019-03-29T07:39:38.650Z,102161.77
2019-03-29T07:42:09.504Z,102161.70
2019-03-29T07:44:40.138Z,102160.95
2019-03-29T07:47:10.911Z,102160.99
2019-03-29T07:49:41.561Z,102154.33
2019-03-29T07:52:12.296Z,102157.06
2019-03-29T07:54:43.072Z,102156.70
2019-03-29T07:57:14.026Z,102155.91
2019-03-29T07:59:44.882Z,102157.90
2019-03-29T08:02:15.519Z,102159.06
2019-03-29T08:04:46.695Z,102148.88
2019-03-29T08:07:27.065Z,102154.95
2019-03-29T08:09:49.824Z,102153.70
2019-03-29T08:12:22.027Z,102141.23
2019-03-29T08:14:52.885Z,102150.44
2019-03-29T08:17:23.843Z,102148.84
2019-03-29T08:20:35.604Z,102140.83
2019-03-29T08:22:35.317Z,102132.47
2019-03-29T08:25:06.126Z,102130.77
2019-03-29T08:27:36.995Z,102124.28
2019-03-29T08:30:06.943Z,102116.40
2019-03-29T08:32:37.349Z,102113.16
2019-03-29T08:35:08.101Z,102121.47
2019-03-29T08:37:38.875Z,102111.78
2019-03-29T08:40:09.509Z,102115.69
2019-03-29T08:42:40.178Z,102116.85
2019-03-29T08:45:10.830Z,102104.34
2019-03-29T08:47:41.683Z,102106.27
2019-03-29T08:50:12.424Z,102103.80
2019-03-29T08:52:43.191Z,102098.69
2019-03-29T08:55:17.240Z,102094.58
2019-03-29T08:57:46.539Z,102090.84
2019-03-29T09:00:20.464Z,102091.86
2019-03-29T09:02:51.321Z,102086.91
2019-03-29T09:05:23.201Z,102081.00
2019-03-29T09:07:53.953Z,102085.35
2019-03-29T09:10:26.190Z,102073.77
2019-03-29T09:12:56.994Z,102073.02
2019-03-29T09:15:27.890Z,102058.73
2019-03-29T09:17:59.950Z,102065.88
2019-03-29T09:20:34.104Z,102058.92
2019-03-29T09:23:03.677Z,102050.11
2019-03-29T09:25:34.427Z,102044.94
2019-03-29T09:28:05.079Z,102042.34
2019-03-29T09:30:38.100Z,102036.00
2019-03-29T09:33:09.061Z,102037.65
2019-03-29T09:35:42.569Z,102036.28
2019-03-29T09:38:12.003Z,102031.98
2019-03-29T09:40:46.613Z,102014.41
2019-03-29T09:43:14.844Z,102026.61
2019-03-29T09:45:45.695Z,102021.06
2019-03-29T09:48:16.328Z,102019.89
2019-03-29T09:50:50.562Z,102012.47
2019-03-29T09:53:19.286Z,102012.28
2019-03-29T09:55:53.281Z,102021.08
2019-03-29T09:58:21.796Z,102012.75
2019-03-29T10:00:51.876Z,102010.10
2019-03-29T10:03:22.402Z,101980.98
2019-03-29T10:05:54.267Z,102003.80
2019-03-29T10:08:25.137Z,101999.91
2019-03-29T10:10:55.871Z,101992.22
2019-03-29T10:13:26.541Z,101986.92
2019-03-29T10:15:57.397Z,101990.55
2019-03-29T10:18:28.152Z,101986.90
2019-03-29T10:20:58.907Z,101984.26
2019-03-29T10:23:29.555Z,101983.80
2019-03-29T10:26:00.210Z,101981.34
2019-03-29T10:28:30.739Z,101968.74
2019-03-29T10:31:00.821Z,101985.95
2019-03-29T10:33:31.346Z,101982.69
2019-03-29T10:36:03.519Z,101972.84
2019-03-29T10:38:35.800Z,101981.31
2019-03-29T10:41:11.687Z,101955.60
2019-03-29T10:43:42.542Z,101966.58
2019-03-29T10:46:13.279Z,101965.34
2019-03-29T10:48:43.948Z,101952.75
2019-03-29T10:51:16.320Z,101947.22
2019-03-29T10:53:46.872Z,101938.97
2019-03-29T10:56:17.629Z,101936.78
2019-03-29T10:58:48.297Z,101939.97
2019-03-29T11:01:19.133Z,101918.64
2019-03-29T11:03:49.783Z,101929.50
2019-03-29T11:06:21.576Z,101933.38
2019-03-29T11:08:52.331Z,101938.75
2019-03-29T11:14:17.960Z,101913.98
2019-03-29T11:16:53.230Z,101920.05
2019-03-29T11:19:23.679Z,101918.36
2019-03-29T11:21:54.534Z,101917.28
2019-03-29T11:24:26.924Z,101902.39
2019-03-29T11:26:57.582Z,101899.50
2019-03-29T11:29:29.641Z,101901.16
2019-03-29T11:32:00.499Z,101899.55
2019-03-29T11:34:31.149Z,101891.56
2019-03-29T11:37:08.362Z,101894.37
2019-03-29T11:39:39.016Z,101892.02
2019-03-29T11:42:09.749Z,101877.11
2019-03-29T11:44:40.521Z,101885.50
2019-03-29T11:47:11.174Z,101874.61
2019-03-29T11:49:42.029Z,101875.03
2019-03-29T11:52:12.768Z,101865.39
2019-03-29T11:54:44.050Z,101871.20
2019-03-29T11:57:14.581Z,101877.48
2019-03-29T11:59:45.456Z,101867.80
2019-03-29T12:02:30.144Z,101875.78
2019-03-29T12:04:48.090Z,101867.42
2019-03-29T12:07:25.488Z,101855.92
2019-03-29T12:09:56.141Z,101857.11
2019-03-29T12:12:27.740Z,101849.29
2019-03-29T12:14:58.247Z,101844.73
2019-03-29T12:17:28.897Z,101834.70
2019-03-29T12:19:59.668Z,101828.11
2019-03-29T12:22:30.526Z,101825.23
2019-03-29T12:25:01.374Z,101828.84
2019-03-29T12:27:32.032Z,101830.89
2019-03-29T12:30:02.694Z,101821.60
2019-03-29T12:32:33.221Z,101814.17
2019-03-29T12:35:05.519Z,101811.94
2019-03-29T12:37:35.969Z,101815.52
2019-03-29T12:40:07.666Z,101808.20
2019-03-29T12:42:38.072Z,101807.77
2019-03-29T12:45:11.298Z,101808.93
2019-03-29T12:47:42.154Z,101789.27
2019-03-29T12:50:12.888Z,101786.02
2019-03-29T12:52:43.559Z,101784.40
2019-03-29T12:55:14.396Z,101770.48
2019-03-29T12:57:45.057Z,101781.36
2019-03-29T13:00:16.023Z,101765.06
2019-03-29T13:02:47.086Z,101765.08
2019-03-29T13:05:17.944Z,101760.04
2019-03-29T13:07:52.904Z,101752.06
2019-03-29T13:10:21.786Z,101748.07
2019-03-29T13:12:51.863Z,101735.27
2019-03-29T13:15:23.515Z,101735.45
2019-03-29T13:17:54.252Z,101724.92
2019-03-29T13:20:24.226Z,101726.09
2019-03-29T13:22:54.753Z,101717.81
2019-03-29T13:25:25.712Z,101725.55
2019-03-29T13:27:59.445Z,101721.23
2019-03-29T13:30:28.856Z,101704.46
2019-03-29T13:32:59.609Z,101699.23
2019-03-29T13:35:30.263Z,101693.69
2019-03-29T13:38:01.117Z,101694.61
2019-03-29T13:40:31.854Z,101697.02
2019-03-29T13:43:02.978Z,101694.50
2019-03-29T13:45:33.785Z,101689.27
2019-03-29T13:48:04.540Z,101677.61
2019-03-29T13:50:34.602Z,101679.36
2019-03-29T13:53:05.025Z,101683.81
2019-03-29T13:55:35.760Z,101678.18
2019-03-29T13:58:06.308Z,101674.10
2019-03-29T14:00:36.243Z,101676.24
2019-03-29T14:03:06.693Z,101677.83
2019-03-29T14:05:37.240Z,101678.67
2019-03-29T14:08:09.033Z,101684.45
2019-03-29T14:10:39.258Z,101669.62
2019-03-29T14:13:09.137Z,101669.47
2019-03-29T14:15:39.642Z,101688.45
2019-03-29T14:18:10.312Z,101675.16
2019-03-29T14:20:40.171Z,101681.22
2019-03-29T14:23:10.574Z,101684.48
2019-03-29T14:25:41.328Z,101671.70
2019-03-29T14:28:13.514Z,101658.44
2019-03-29T14:30:44.167Z,101666.48
2019-03-29T14:33:15.013Z,101656.81
2019-03-29T14:35:46.357Z,101664.41
2019-03-29T14:38:17.472Z,101658.66
2019-03-29T14:40:48.229Z,101674.22
2019-03-29T14:43:18.976Z,101668.89
2019-03-29T14:45:49.835Z,101672.64
2019-03-29T14:48:20.382Z,101673.64
2019-03-29T14:51:00.922Z,101677.75
2019-03-29T14:53:38.993Z,101675.45
2019-03-29T14:56:15.189Z,101686.86
2019-03-29T14:58:53.391Z,101685.99
2019-03-29T15:01:38.580Z,101690.48
2019-03-29T15:04:09.290Z,101677.66
2019-03-29T15:06:39.823Z,101688.17
2019-03-29T15:09:11.514Z,101686.19
2019-03-29T15:11:42.373Z,101684.34
2019-03-29T15:14:13.024Z,101676.82
2019-03-29T15:16:42.985Z,101680.06
2019-03-29T15:19:13.121Z,101676.11
2019-03-29T15:21:43.265Z,101664.12
2019-03-29T15:24:13.686Z,101670.58
2019-03-29T15:26:44.424Z,101672.13
2019-03-29T15:29:15.092Z,101673.05
2019-03-29T15:31:45.053Z,101674.44
2019-03-29T15:34:15.456Z,101669.36
2019-03-29T15:36:47.192Z,101668.30
2019-03-29T15:39:17.389Z,101669.53
2019-03-29T15:41:48.130Z,101661.96
2019-03-29T15:44:19.208Z,101663.48
2019-03-29T15:46:49.738Z,101651.83
2019-03-29T15:49:20.506Z,101653.34
2019-03-29T15:51:51.364Z,101660.39
2019-03-29T15:54:22.017Z,101642.15
2019-03-29T15:56:51.982Z,101645.81
2019-03-29T15:59:22.384Z,101645.50
2019-03-29T16:01:53.159Z,101645.50
2019-03-29T16:04:23.684Z,101647.61
2019-03-29T16:06:54.560Z,101646.87
2019-03-29T16:09:26.335Z,101632.88
2019-03-29T16:11:57.075Z,101643.14
2019-03-29T16:14:27.846Z,101644.36
2019-03-29T16:16:58.493Z,101643.63
2019-03-29T16:19:29.246Z,101646.19
2019-03-29T16:22:00.005Z,101646.19
2019-03-29T16:24:30.767Z,101634.08
2019-03-29T16:27:01.401Z,101640.53
2019-03-29T16:29:32.266Z,101638.51
2019-03-29T16:32:03.025Z,101631.44
2019-03-29T16:34:33.774Z,101635.86
2019-03-29T16:37:04.424Z,101633.87
2019-03-29T16:39:35.280Z,101630.50
2019-03-29T16:42:06.034Z,101630.05
2019-03-29T16:44:36.788Z,101629.72
2019-03-29T16:47:07.645Z,101622.22
2019-03-29T16:49:38.500Z,101643.02
2019-03-29T16:52:09.154Z,101649.46
2019-03-29T16:54:39.787Z,101655.70
2019-03-29T16:57:10.667Z,101661.21
2019-03-29T16:59:41.414Z,101664.30
2019-03-29T17:02:12.167Z,101664.32
2019-03-29T17:04:42.699Z,101664.64
2019-03-29T17:07:13.469Z,101668.17
2019-03-29T17:09:45.247Z,101667.91
2019-03-29T17:12:16.103Z,101654.72
2019-03-29T17:14:46.856Z,101667.26
2019-03-29T17:17:17.510Z,101668.64
2019-03-29T17:19:48.368Z,101660.36
2019-03-29T17:22:19.004Z,101667.74
2019-03-29T17:24:56.830Z,101676.02
2019-03-29T17:27:21.956Z,101676.80
2019-03-29T17:29:52.812Z,101675.27
2019-03-29T17:32:22.671Z,101668.20
2019-03-29T17:34:53.195Z,101670.67
2019-03-29T17:37:24.563Z,101669.02
2019-03-29T17:39:55.096Z,101664.11
2019-03-29T17:42:26.070Z,101675.44
2019-03-29T17:44:59.022Z,101678.68
2019-03-29T17:47:29.007Z,101674.54
2019-03-29T17:49:59.661Z,101673.45
2019-03-29T17:52:30.518Z,101671.91
2019-03-29T17:55:01.254Z,101670.39
2019-03-29T17:57:32.023Z,101666.09
2019-03-29T18:00:02.865Z,101663.49
2019-03-29T18:02:33.412Z,101657.33
2019-03-29T18:05:05.880Z,101659.65
2019-03-29T18:07:36.249Z,101660.69
2019-03-29T18:10:08.100Z,101650.47
2019-03-29T18:12:38.372Z,101666.58
2019-03-29T18:15:09.126Z,101667.31
2019-03-29T18:17:39.002Z,101672.05
2019-03-29T18:20:09.524Z,101669.45
2019-03-29T18:22:40.276Z,101664.54
2019-03-29T18:25:11.135Z,101667.74
2019-03-29T18:27:41.992Z,101672.94
2019-03-29T18:30:14.568Z,101664.83
2019-03-29T18:32:45.321Z,101657.16
2019-03-29T18:35:15.973Z,101659.92
2019-03-29T18:37:46.744Z,101670.34
2019-03-29T18:40:23.329Z,101654.88
2019-03-29T18:42:54.974Z,101652.12
2019-03-29T18:45:25.349Z,101658.69
2019-03-29T18:47:56.437Z,101659.90
2019-03-29T18:50:26.857Z,101666.92
2019-03-29T18:52:57.611Z,101666.02
2019-03-29T18:55:28.348Z,101658.03
2019-03-29T18:57:59.118Z,101646.43
2019-03-29T19:00:31.384Z,101661.89
2019-03-29T19:03:01.757Z,101653.44
2019-03-29T19:05:32.604Z,101648.24
2019-03-29T19:08:03.767Z,101648.70
2019-03-29T19:10:35.134Z,101648.55
2019-03-29T19:13:05.467Z,101638.44
2019-03-29T19:15:36.236Z,101631.83
2019-03-29T19:18:06.889Z,101635.08
2019-03-29T19:20:37.640Z,101632.47
2019-03-29T19:23:08.497Z,101635.39
2019-03-29T19:25:39.252Z,101631.09
2019-03-29T19:28:09.781Z,101625.25
2019-03-29T19:30:40.655Z,101638.28
2019-03-29T19:33:11.510Z,101643.34
2019-03-29T19:35:42.146Z,101649.64
2019-03-29T19:38:12.225Z,101638.28
2019-03-29T19:40:42.750Z,101636.89
2019-03-29T19:43:13.403Z,101652.22
2019-03-29T19:45:44.153Z,101654.49
2019-03-29T19:48:15.013Z,101640.70
2019-03-29T19:50:45.766Z,101637.16
2019-03-29T19:53:16.364Z,101630.09
2019-03-29T19:55:47.214Z,101635.45
2019-03-29T19:58:18.097Z,101635.45
2019-03-29T20:00:48.896Z,101634.69
2019-03-29T20:03:19.659Z,101624.42
2019-03-29T20:05:50.498Z,101621.70
2019-03-29T20:08:21.124Z,101615.71
2019-03-29T20:10:52.803Z,101611.58
2019-03-29T20:13:23.164Z,101606.70
2019-03-29T20:15:53.798Z,101609.30
2019-03-29T20:18:23.774Z,101603.00
2019-03-29T20:20:54.180Z,101603.30
2019-03-29T20:23:24.954Z,101610.08
2019-03-29T20:25:55.500Z,101608.38
2019-03-29T20:28:26.356Z,101602.73
2019-03-29T20:30:56.989Z,101593.52
2019-03-29T20:33:27.765Z,101590.77
2019-03-29T20:35:58.294Z,101583.70
2019-03-29T20:38:29.167Z,101585.54
2019-03-29T20:41:00.026Z,101586.17
2019-03-29T20:43:30.662Z,101581.23
2019-03-29T20:46:00.738Z,101582.92
2019-03-29T20:48:31.268Z,101589.78
2019-03-29T20:51:01.897Z,101582.53
2019-03-29T20:53:32.771Z,101591.83
2019-03-29T20:56:09.336Z,101581.48
2019-03-29T20:58:39.987Z,101581.66
2019-03-29T21:01:10.642Z,101574.37
2019-03-29T21:03:40.618Z,101580.43
2019-03-29T21:06:11.143Z,101579.47
2019-03-29T21:08:41.895Z,101582.91
2019-03-29T21:11:13.556Z,101575.74
2019-03-29T21:13:44.019Z,101579.48
2019-03-29T21:16:14.650Z,101578.34
2019-03-29T21:18:45.404Z,101583.30
2019-03-29T21:21:16.156Z,101584.55
2019-03-29T21:23:47.386Z,101584.05
2019-03-29T21:26:17.994Z,101580.88
2019-03-29T21:28:48.856Z,101590.78
2019-03-29T21:31:19.600Z,101586.95
2019-03-29T21:33:50.135Z,101593.05
2019-03-29T21:36:20.102Z,101598.03
2019-03-29T21:38:50.899Z,101596.23
2019-03-29T21:41:21.590Z,101594.45
2019-03-29T21:43:52.329Z,101595.45
2019-03-29T21:46:23.099Z,101598.37
2019-03-29T21:48:53.746Z,101598.87
2019-03-29T21:51:24.604Z,101594.41
2019-03-29T21:53:55.362Z,101588.41
2019-03-29T21:56:26.097Z,101602.64
2019-03-29T21:58:56.766Z,101588.91
2019-03-29T22:01:27.623Z,101590.84
2019-03-29T22:03:58.377Z,101589.91
2019-03-29T22:06:29.132Z,101586.98
2019-03-29T22:08:59.987Z,101575.19
2019-03-29T22:11:31.855Z,101576.80
2019-03-29T22:14:02.724Z,101572.73
2019-03-29T22:16:33.475Z,101580.11
2019-03-29T22:19:04.128Z,101569.27
2019-03-29T22:21:34.984Z,101574.84
2019-03-29T22:24:05.623Z,101570.55
2019-03-29T22:26:36.373Z,101561.12
2019-03-29T22:29:06.961Z,101568.60
2019-03-29T22:31:37.795Z,101558.37
2019-03-29T22:34:08.424Z,101569.91
2019-03-29T22:36:39.200Z,101570.98
2019-03-29T22:39:09.731Z,101572.09
2019-03-29T22:41:40.606Z,101575.36
2019-03-29T22:44:11.358Z,101581.53
2019-03-29T22:46:42.111Z,101575.67
2019-03-29T22:49:12.763Z,101567.02
2019-03-29T22:51:43.621Z,101576.16
2019-03-29T22:54:14.253Z,101566.91
2019-03-29T22:56:45.025Z,101559.56
2019-03-29T22:59:15.680Z,101563.30
2019-03-29T23:01:46.742Z,101562.97
2019-03-29T23:04:17.490Z,101561.86
2019-03-29T23:06:48.141Z,101567.33
2019-03-29T23:09:18.879Z,101562.13
2019-03-29T23:11:50.887Z,101562.44
2019-03-29T23:14:21.617Z,101557.86
2019-03-29T23:16:52.387Z,101552.94
2019-03-29T23:19:23.043Z,101547.62
2019-03-29T23:21:53.896Z,101552.33
2019-03-29T23:24:24.531Z,101546.46
2019-03-29T23:26:55.284Z,101547.67
2019-03-29T23:29:25.935Z,101545.28
2019-03-29T23:31:56.809Z,101535.48
2019-03-29T23:34:27.564Z,101537.84
2019-03-29T23:36:58.314Z,101530.59
2019-03-29T23:39:28.968Z,101541.80
2019-03-29T23:41:59.823Z,101535.02
2019-03-29T23:44:30.456Z,101532.64
2019-03-29T23:47:01.228Z,101542.95
2019-03-29T23:49:31.880Z,101526.13
2019-03-29T23:52:02.728Z,101529.59
2019-03-29T23:54:33.491Z,101529.21
2019-03-29T23:57:04.349Z,101517.39
2019-03-29T23:59:35.203Z,101521.25
